Time;durP1;ratioP1;P1;durP2;ratioP2;P2;SDS_P1;SDS_P2;PMS_P1;PMS_P2;Temp;Humidity;BMP_temperature;BMP_pressure;BME280_temperature;BME280_humidity;BME280_pressure;Samples;Min_cycle;Max_cycle;Signal;HPM_P1;HPM_P2
2022/01/01 00:01:53;;;;;;;;;53.50;44.00;;;;;13.55;70.95;102088.44;5019907;28;45300;-46
2022/01/01 00:04:18;;;;;;;;;53.75;41.75;;;;;13.53;70.96;102090.19;5019691;28;45221;-46
2022/01/01 00:06:44;;;;;;;;;51.50;41.25;;;;;13.54;70.46;102101.66;5018191;28;45563;-48
2022/01/01 00:09:09;;;;;;;;;49.75;38.50;;;;;13.52;70.83;102090.19;5019407;28;46235;-46
2022/01/01 00:11:34;;;;;;;;;51.25;43.50;;;;;13.51;70.52;102096.38;5019616;28;45329;-45
2022/01/01 00:14:00;;;;;;;;;45.25;38.00;;;;;13.51;70.36;102099.00;5019575;28;45179;-48
2022/01/01 00:16:25;;;;;;;;;45.75;38.00;;;;;13.47;70.79;102090.22;5019761;28;45217;-47
2022/01/01 00:18:51;;;;;;;;;48.00;39.75;;;;;13.48;70.60;102105.19;5019514;28;45320;-45
2022/01/01 00:21:16;;;;;;;;;47.50;40.75;;;;;13.45;70.76;102102.56;5020975;28;45237;-48
2022/01/01 00:23:42;;;;;;;;;52.00;43.50;;;;;13.45;70.61;102102.56;5022911;28;45225;-47
2022/01/01 00:26:07;;;;;;;;;53.25;44.00;;;;;13.44;70.84;102096.38;5022975;28;45475;-50
2022/01/01 00:28:33;;;;;;;;;61.75;48.00;;;;;13.42;70.84;102098.19;5022557;28;46252;-49
2022/01/01 00:30:58;;;;;;;;;72.50;56.25;;;;;13.43;70.49;102099.03;5029872;28;45777;-46
2022/01/01 00:33:25;;;;;;;;;72.75;60.00;;;;;13.42;70.59;102102.56;5042912;28;45722;-46
2022/01/01 00:35:50;;;;;;;;;66.75;52.00;;;;;13.41;70.49;102099.06;5029569;28;45273;-48
2022/01/01 00:38:15;;;;;;;;;58.00;47.25;;;;;13.41;70.76;102098.16;5029444;28;46062;-46
2022/01/01 00:40:41;;;;;;;;;59.00;47.00;;;;;13.40;70.70;102096.44;5022544;28;45324;-46
2022/01/01 00:43:06;;;;;;;;;54.00;42.75;;;;;13.39;70.68;102098.16;5022702;28;45257;-50
2022/01/01 00:45:31;;;;;;;;;52.50;41.75;;;;;13.40;70.51;102107.84;5022784;28;45594;-48
2022/01/01 00:47:57;;;;;;;;;48.00;40.25;;;;;13.36;70.42;102098.16;5022611;28;46262;-48
2022/01/01 00:50:22;;;;;;;;;47.25;40.50;;;;;13.39;70.34;102102.59;5022531;28;45297;-47
2022/01/01 00:52:50;;;;;;;;;53.75;43.25;;;;;13.37;70.43;102105.25;5022795;28;45296;-51
2022/01/01 00:55:15;;;;;;;;;54.50;41.75;;;;;13.36;70.83;102114.00;5022378;28;45245;-45
2022/01/01 00:57:40;;;;;;;;;43.50;35.75;;;;;13.35;71.05;102106.09;5043216;28;47436;-50
2022/01/01 01:00:07;;;;;;;;;47.00;38.50;;;;;13.33;70.36;102111.38;5023114;28;45134;-48
2022/01/01 01:02:33;;;;;;;;;48.00;39.75;;;;;13.32;70.51;102109.63;5022551;28;45475;-46
2022/01/01 01:04:58;;;;;;;;;48.00;39.00;;;;;13.33;70.86;102108.72;5024578;28;45440;-46
2022/01/01 01:07:24;;;;;;;;;47.00;39.00;;;;;13.32;70.50;102107.84;5042485;28;45432;-49
2022/01/01 01:09:49;;;;;;;;;48.50;38.25;;;;;13.32;70.42;102112.28;5041975;28;45279;-46
2022/01/01 01:12:24;;;;;;;;;46.75;39.00;;;;;13.32;70.50;102101.72;5042158;28;45348;-50
2022/01/01 01:14:49;;;;;;;;;46.50;38.50;;;;;13.32;70.68;102099.94;5042372;28;45329;-49
2022/01/01 01:17:15;;;;;;;;;49.75;40.00;;;;;13.31;70.88;102098.19;5024114;28;47209;-47
2022/01/01 01:19:40;;;;;;;;;47.50;39.50;;;;;13.29;70.55;102097.28;5042291;28;45459;-45
2022/01/01 01:22:06;;;;;;;;;48.75;40.50;;;;;13.28;71.03;102092.94;5042056;28;45798;-47
2022/01/01 01:24:33;;;;;;;;;48.50;39.00;;;;;13.29;70.75;102109.63;5042234;28;45276;-46
2022/01/01 01:27:01;;;;;;;;;50.00;41.25;;;;;13.29;70.83;102099.94;5041627;28;47035;-47
2022/01/01 01:29:27;;;;;;;;;47.00;39.75;;;;;13.27;70.76;102091.16;5041872;28;45297;-48
2022/01/01 01:31:52;;;;;;;;;53.00;40.75;;;;;13.28;70.83;102094.66;5038047;28;45442;-45
2022/01/01 01:34:18;;;;;;;;;48.00;37.75;;;;;13.26;70.69;102099.97;5062268;28;45146;-46
2022/01/01 01:36:43;;;;;;;;;46.00;36.50;;;;;13.27;70.87;102096.44;5060930;28;45523;-45
2022/01/01 01:39:09;;;;;;;;;46.00;37.25;;;;;13.27;70.69;102100.81;5041635;28;45328;-47
2022/01/01 01:41:35;;;;;;;;;50.75;40.25;;;;;13.26;70.26;102097.31;5041708;28;45455;-49
2022/01/01 01:44:03;;;;;;;;;51.25;40.50;;;;;13.25;70.62;102095.56;5041615;28;45316;-49
2022/01/01 01:46:28;;;;;;;;;50.00;41.00;;;;;13.23;70.86;102086.78;5041572;28;47167;-48
2022/01/01 01:48:54;;;;;;;;;51.00;41.00;;;;;13.24;70.93;102093.78;5023824;28;45277;-49
2022/01/01 01:51:20;;;;;;;;;52.25;41.75;;;;;13.24;70.77;102098.22;5041633;28;45251;-47
2022/01/01 01:53:46;;;;;;;;;52.75;42.00;;;;;13.23;70.50;102093.81;5041642;28;45304;-46
2022/01/01 01:56:11;;;;;;;;;50.50;41.50;;;;;13.23;70.27;102096.44;5040386;28;45459;-46
2022/01/01 01:58:37;;;;;;;;;52.25;43.00;;;;;13.22;70.76;102092.94;5041516;28;45313;-46
2022/01/01 02:03:37;;;;;;;;;50.00;40.00;;;;;13.22;70.82;102103.50;5041564;28;45277;-46
2022/01/01 02:06:06;;;;;;;;;51.00;39.25;;;;;13.22;70.54;102100.88;5023233;28;47062;-48
2022/01/01 02:08:32;;;;;;;;;46.50;39.75;;;;;13.18;70.74;102093.81;5041436;28;45282;-45
2022/01/01 02:10:57;;;;;;;;;49.00;39.75;;;;;13.20;70.34;102096.47;5041395;28;45319;-47
2022/01/01 02:13:33;;;;;;;;;46.75;37.75;;;;;13.19;70.77;102089.44;5041271;28;45530;-46
2022/01/01 02:18:42;;;;;;;;;48.25;41.00;;;;;13.16;70.14;102083.28;5041441;28;45376;-48
2022/01/01 02:21:07;;;;;;;;;51.75;40.00;;;;;13.15;70.46;102086.78;5041255;28;45369;-47
2022/01/01 02:23:33;;;;;;;;;46.75;37.75;;;;;13.15;70.47;102085.94;5023305;28;45436;-46
2022/01/01 02:25:58;;;;;;;;;39.75;34.00;;;;;13.14;70.48;102084.16;5040933;28;45999;-46
2022/01/01 02:28:24;;;;;;;;;45.50;36.00;;;;;13.12;70.28;102084.19;5041132;28;45369;-46
2022/01/01 02:30:50;;;;;;;;;42.50;37.50;;;;;13.10;70.20;102082.44;5046829;28;45433;-47
2022/01/01 02:33:16;;;;;;;;;46.50;39.00;;;;;13.11;70.55;102086.81;5061452;28;45174;-50
2022/01/01 02:35:42;;;;;;;;;45.50;36.50;;;;;13.07;70.59;102070.13;5060949;28;46168;-49
2022/01/01 02:38:08;;;;;;;;;44.75;38.00;;;;;13.05;70.62;102071.00;5048488;28;45329;-51
2022/01/01 02:40:33;;;;;;;;;43.25;35.75;;;;;13.03;70.29;102072.75;5040700;28;45222;-50
2022/01/01 02:42:59;;;;;;;;;43.75;36.25;;;;;13.00;70.23;102078.94;5040342;28;45392;-51
2022/01/01 02:45:24;;;;;;;;;43.25;36.25;;;;;12.97;70.15;102071.91;5040308;28;45317;-50
2022/01/01 02:47:49;;;;;;;;;42.25;34.75;;;;;12.95;70.21;102060.47;5040919;28;45261;-51
2022/01/01 02:50:15;;;;;;;;;43.50;36.00;;;;;12.92;70.39;102060.50;5040745;28;45480;-50
2022/01/01 02:52:40;;;;;;;;;33.50;29.75;;;;;12.88;70.40;102052.56;5040971;28;45297;-50
2022/01/01 02:55:07;;;;;;;;;32.75;28.50;;;;;12.88;69.98;102060.50;5022408;28;46084;-47
2022/01/01 02:57:33;;;;;;;;;35.00;31.75;;;;;12.84;70.12;102060.50;5022636;28;45893;-49
2022/01/01 02:59:58;;;;;;;;;37.25;33.25;;;;;12.82;70.44;102064.03;5040479;28;45380;-47
2022/01/01 03:02:23;;;;;;;;;35.50;32.25;;;;;12.80;70.36;102076.34;5040666;28;45168;-47
2022/01/01 03:04:49;;;;;;;;;36.50;34.00;;;;;12.77;69.89;102081.63;5040285;28;45428;-48
2022/01/01 03:07:15;;;;;;;;;37.75;31.00;;;;;12.75;70.23;102083.38;5040705;28;45250;-49
2022/01/01 03:09:40;;;;;;;;;36.25;32.75;;;;;12.71;70.20;102082.50;5040207;28;45380;-50
2022/01/01 03:12:10;;;;;;;;;40.00;35.00;;;;;12.68;70.08;102083.41;5040455;28;45260;-51
2022/01/01 03:14:37;;;;;;;;;40.00;34.75;;;;;12.64;70.20;102086.03;5040278;28;46293;-46
2022/01/01 03:17:04;;;;;;;;;38.50;34.00;;;;;12.62;70.13;102087.81;5040427;28;45379;-49
2022/01/01 03:19:29;;;;;;;;;37.00;32.75;;;;;12.59;70.31;102075.50;5040180;28;45268;-48
2022/01/01 03:21:54;;;;;;;;;37.75;32.25;;;;;12.55;70.19;102067.59;5022255;28;45384;-49
2022/01/01 03:24:20;;;;;;;;;41.50;34.00;;;;;12.52;70.19;102071.13;5039895;28;46034;-47
2022/01/01 03:26:45;;;;;;;;;36.00;32.50;;;;;12.50;70.26;102070.22;5040203;28;45221;-47
2022/01/01 03:29:10;;;;;;;;;34.75;31.50;;;;;12.47;70.28;102070.25;5040229;28;45335;-46
2022/01/01 03:31:36;;;;;;;;;33.50;30.00;;;;;12.45;70.18;102085.19;5052240;28;45300;-48
2022/01/01 03:34:03;;;;;;;;;33.00;30.75;;;;;12.40;70.12;102077.28;5058832;28;45325;-48
2022/01/01 03:36:29;;;;;;;;;32.25;31.50;;;;;12.38;69.96;102079.03;5060303;28;45312;-51
2022/01/01 03:38:54;;;;;;;;;36.00;32.75;;;;;12.37;70.08;102081.69;5040988;28;45423;-48
2022/01/01 03:41:20;;;;;;;;;31.25;27.75;;;;;12.35;69.93;102082.56;5040084;28;45353;-50
2022/01/01 03:43:46;;;;;;;;;40.25;34.75;;;;;12.32;69.91;102072.00;5039654;28;45856;-50
2022/01/01 03:46:11;;;;;;;;;29.25;28.25;;;;;12.31;70.12;102079.91;5040109;28;45387;-49
2022/01/01 03:48:37;;;;;;;;;39.75;34.00;;;;;12.29;70.06;102079.91;5021989;28;45381;-47
2022/01/01 03:51:02;;;;;;;;;35.50;32.25;;;;;12.27;70.00;102065.84;5039886;28;45312;-47
2022/01/01 03:53:28;;;;;;;;;36.00;30.50;;;;;12.24;70.27;102073.78;5039716;28;45281;-47
2022/01/01 03:55:53;;;;;;;;;42.00;35.00;;;;;12.22;70.15;102070.25;5039740;28;45235;-49
2022/01/01 03:58:19;;;;;;;;;33.75;31.50;;;;;12.20;70.22;102064.13;5039520;28;45596;-48
2022/01/01 04:00:44;;;;;;;;;38.50;33.75;;;;;12.16;70.20;102060.59;5039729;28;45382;-51
2022/01/01 04:03:16;;;;;;;;;42.50;34.00;;;;;12.14;69.97;102061.47;5021617;28;47088;-51
2022/01/01 04:05:43;;;;;;;;;44.00;35.75;;;;;12.12;70.17;102060.59;5039748;28;45451;-51
2022/01/01 04:08:09;;;;;;;;;43.00;33.00;;;;;12.11;70.15;102069.38;5039606;28;45271;-47
2022/01/01 04:10:36;;;;;;;;;41.50;34.00;;;;;12.10;70.31;102075.50;5039568;28;45416;-49
2022/01/01 04:13:03;;;;;;;;;37.50;32.75;;;;;12.09;70.15;102071.09;5039319;28;46055;-48
2022/01/01 04:15:29;;;;;;;;;40.00;34.25;;;;;12.08;70.31;102064.09;5021690;28;45480;-48
2022/01/01 04:17:58;;;;;;;;;37.25;32.25;;;;;12.08;70.00;102072.00;5039630;28;45352;-47
2022/01/01 04:20:25;;;;;;;;;35.75;31.25;;;;;12.05;70.01;102064.09;5039379;28;45813;-48
2022/01/01 04:22:55;;;;;;;;;39.00;31.50;;;;;12.04;70.11;102065.84;5039435;28;47095;-50
2022/01/01 04:25:22;;;;;;;;;29.00;27.25;;;;;12.01;70.40;102072.00;5039071;28;45378;-48
2022/01/01 04:27:48;;;;;;;;;28.75;26.50;;;;;12.00;70.20;102067.59;5021427;28;45374;-46
2022/01/01 04:30:13;;;;;;;;;31.50;27.50;;;;;12.00;70.43;102072.88;5039974;28;45334;-45
2022/01/01 04:32:39;;;;;;;;;25.50;25.50;;;;;11.97;70.24;102072.00;5059425;28;45497;-49
2022/01/01 04:35:05;;;;;;;;;33.50;27.75;;;;;11.95;70.53;102064.06;5059378;28;45221;-49
2022/01/01 04:37:30;;;;;;;;;27.50;26.50;;;;;11.92;70.58;102065.81;5051919;28;45497;-48
2022/01/01 04:39:59;;;;;;;;;27.75;25.00;;;;;11.90;70.50;102062.28;5038941;28;45533;-47
2022/01/01 04:42:25;;;;;;;;;29.50;27.00;;;;;11.89;70.43;102066.69;5038981;28;46404;-46
2022/01/01 04:44:51;;;;;;;;;28.50;27.00;;;;;11.86;70.81;102072.81;5039130;28;45262;-45
2022/01/01 04:47:16;;;;;;;;;27.50;26.50;;;;;11.82;70.55;102064.91;5039219;28;45305;-47
2022/01/01 04:49:41;;;;;;;;;29.75;26.75;;;;;11.83;70.84;102071.94;5039164;28;45443;-48
2022/01/01 04:52:07;;;;;;;;;25.75;24.75;;;;;11.81;70.68;102068.41;5021160;28;47020;-48
2022/01/01 04:54:34;;;;;;;;;32.00;28.50;;;;;11.79;70.58;102070.19;5038959;28;45350;-50
2022/01/01 04:56:59;;;;;;;;;23.75;22.50;;;;;11.77;70.45;102071.94;5038950;28;45237;-47
2022/01/01 04:59:25;;;;;;;;;21.50;20.50;;;;;11.75;70.53;102073.66;5020995;28;45557;-47
2022/01/01 05:01:50;;;;;;;;;26.25;23.25;;;;;11.70;70.78;102066.63;5038917;28;46815;-45
2022/01/01 05:04:16;;;;;;;;;23.50;21.00;;;;;11.70;70.79;102066.63;5038885;28;45331;-47
2022/01/01 05:06:41;;;;;;;;;27.75;22.50;;;;;11.70;70.65;102066.63;5039754;28;45237;-49
2022/01/01 05:09:08;;;;;;;;;24.50;22.50;;;;;11.68;70.93;102064.88;5042198;28;45174;-47
2022/01/01 05:11:34;;;;;;;;;24.50;22.00;;;;;11.63;70.66;102064.00;5042333;28;46925;-46
2022/01/01 05:13:59;;;;;;;;;25.75;22.00;;;;;11.65;70.73;102067.53;5041890;28;45393;-46
2022/01/01 05:16:24;;;;;;;;;28.25;25.25;;;;;11.64;70.70;102065.75;5042534;28;45300;-48
2022/01/01 05:18:50;;;;;;;;;25.50;25.00;;;;;11.64;70.76;102066.63;5024272;28;45504;-46
2022/01/01 05:21:15;;;;;;;;;24.25;22.50;;;;;11.59;70.78;102063.09;5042160;28;45925;-50
2022/01/01 05:23:41;;;;;;;;;28.00;27.00;;;;;11.61;70.61;102068.38;5042139;28;45274;-47
2022/01/01 05:26:06;;;;;;;;;22.50;22.50;;;;;11.60;70.69;102066.63;5048970;28;45373;-46
2022/01/01 05:28:32;;;;;;;;;29.25;27.50;;;;;11.59;70.79;102064.88;5062125;28;45353;-49
2022/01/01 05:30:57;;;;;;;;;24.00;21.25;;;;;11.57;70.60;102067.47;5055400;28;45380;-47
2022/01/01 05:33:23;;;;;;;;;28.25;23.75;;;;;11.58;70.78;102071.00;5062042;28;45298;-49
2022/01/01 05:35:48;;;;;;;;;24.00;21.00;;;;;11.54;70.65;102057.81;5062270;28;45296;-46
2022/01/01 05:38:14;;;;;;;;;28.25;23.75;;;;;11.56;70.34;102068.38;5048385;28;45431;-46
2022/01/01 05:40:39;;;;;;;;;24.50;24.00;;;;;11.54;70.72;102063.09;5041679;28;45321;-46
2022/01/01 05:43:12;;;;;;;;;27.25;22.75;;;;;11.52;70.80;102056.06;5041731;28;45427;-45
2022/01/01 05:45:37;;;;;;;;;26.75;23.50;;;;;11.52;70.79;102048.16;5036728;28;45439;-50
2022/01/01 05:48:03;;;;;;;;;24.75;23.75;;;;;11.50;70.84;102047.28;5047186;28;45328;-46
2022/01/01 05:50:28;;;;;;;;;25.75;22.50;;;;;11.50;70.78;102042.03;5041730;28;45378;-48
2022/01/01 05:52:54;;;;;;;;;32.25;26.25;;;;;11.49;70.57;102049.03;5041776;28;45321;-49
2022/01/01 05:55:19;;;;;;;;;27.50;24.50;;;;;11.47;70.76;102040.28;5041788;28;45232;-46
2022/01/01 05:57:44;;;;;;;;;32.50;26.50;;;;;11.51;70.62;102052.56;5041525;28;45221;-46
2022/01/01 06:00:11;;;;;;;;;49.75;40.25;;;;;11.51;70.60;102049.06;5041594;28;45245;-51
2022/01/01 06:02:40;;;;;;;;;42.00;35.50;;;;;11.52;70.63;102045.53;5041543;28;45336;-48
2022/01/01 06:05:06;;;;;;;;;39.50;33.75;;;;;11.53;70.77;102044.66;5041449;28;45432;-45
2022/01/01 06:07:32;;;;;;;;;26.00;23.75;;;;;11.53;70.71;102039.38;5041296;28;45420;-48
2022/01/01 06:09:57;;;;;;;;;33.50;29.50;;;;;11.52;70.74;102033.25;5041075;28;47120;-46
2022/01/01 06:12:23;;;;;;;;;26.50;25.00;;;;;11.53;70.69;102034.13;5041166;28;45340;-49
2022/01/01 06:14:48;;;;;;;;;29.00;29.00;;;;;11.54;70.75;102036.75;5036078;28;45708;-49
2022/01/01 06:17:13;;;;;;;;;27.75;26.25;;;;;11.54;70.42;102033.25;5046859;28;45340;-45
2022/01/01 06:19:39;;;;;;;;;27.00;24.25;;;;;11.54;70.72;102046.41;5022273;28;48474;-48
2022/01/01 06:22:04;;;;;;;;;28.50;27.25;;;;;11.54;70.46;102043.78;5023235;28;45252;-45
2022/01/01 06:24:30;;;;;;;;;28.25;28.25;;;;;11.51;70.71;102041.16;5023496;28;45537;-47
2022/01/01 06:26:55;;;;;;;;;31.25;26.25;;;;;11.55;70.64;102048.19;5023008;28;45212;-45
2022/01/01 06:29:21;;;;;;;;;26.50;24.50;;;;;11.52;70.54;102040.25;5041050;28;45348;-47
2022/01/01 06:31:46;;;;;;;;;25.75;24.50;;;;;11.50;70.64;102040.25;5054578;28;45186;-49
2022/01/01 06:34:11;;;;;;;;;23.25;22.25;;;;;11.50;70.74;102045.53;5061345;28;45304;-46
2022/01/01 06:36:37;;;;;;;;;25.75;23.75;;;;;11.51;70.68;102049.94;5061327;28;45399;-46
2022/01/01 06:39:03;;;;;;;;;24.50;23.25;;;;;11.50;70.56;102048.16;5041157;28;45254;-50
2022/01/01 06:41:29;;;;;;;;;26.25;19.75;;;;;11.50;70.51;102036.78;5040951;28;45686;-46
2022/01/01 06:43:54;;;;;;;;;23.75;23.25;;;;;11.48;70.31;102031.50;5040915;28;45282;-50
2022/01/01 06:46:19;;;;;;;;;24.75;24.75;;;;;11.48;70.83;102039.41;5040880;28;45455;-47
2022/01/01 06:48:45;;;;;;;;;22.25;22.00;;;;;11.48;70.83;102030.59;5040841;28;45587;-46
2022/01/01 06:51:10;;;;;;;;;27.25;23.00;;;;;11.49;70.57;102040.25;5040652;28;45300;-47
2022/01/01 06:53:35;;;;;;;;;24.75;21.50;;;;;11.47;70.60;102032.38;5040913;28;45444;-47
2022/01/01 06:56:05;;;;;;;;;22.50;22.25;;;;;11.47;70.66;102034.09;5040840;28;45451;-48
2022/01/01 06:58:31;;;;;;;;;21.50;20.75;;;;;11.44;70.62;102034.97;5022392;28;47278;-47
2022/01/01 07:00:57;;;;;;;;;27.00;24.00;;;;;11.43;70.61;102030.59;5040553;28;45221;-49
2022/01/01 07:03:25;;;;;;;;;20.75;17.25;;;;;11.42;70.19;102030.59;5040470;28;45244;-48
2022/01/01 07:05:50;;;;;;;;;23.50;20.50;;;;;11.40;70.47;102027.09;5040524;28;45447;-48
2022/01/01 07:08:16;;;;;;;;;20.75;20.50;;;;;11.36;70.58;102027.06;5040512;28;46159;-47
2022/01/01 07:10:44;;;;;;;;;20.00;18.75;;;;;11.34;70.53;102031.44;5040314;28;45326;-47
2022/01/01 07:13:10;;;;;;;;;20.00;20.00;;;;;11.34;70.46;102034.06;5040435;28;45274;-48
2022/01/01 07:15:35;;;;;;;;;23.50;21.25;;;;;11.30;70.47;102031.44;5040303;28;45207;-48
2022/01/01 07:18:01;;;;;;;;;21.00;21.00;;;;;11.30;70.46;102031.44;5040312;28;46166;-47
2022/01/01 07:20:26;;;;;;;;;22.25;22.00;;;;;11.28;70.42;102027.91;5040392;28;45253;-46
2022/01/01 07:22:51;;;;;;;;;33.50;30.00;;;;;11.26;70.21;102032.28;5040502;28;45370;-49
2022/01/01 07:25:18;;;;;;;;;24.00;24.00;;;;;11.26;70.38;102035.81;5040320;28;45166;-49
2022/01/01 07:27:44;;;;;;;;;24.00;21.00;;;;;11.26;70.04;102041.06;5040229;28;45961;-46
2022/01/01 07:30:10;;;;;;;;;31.75;23.75;;;;;11.22;69.94;102037.56;5039728;28;45421;-47
2022/01/01 07:32:40;;;;;;;;;22.00;22.00;;;;;11.22;70.36;102036.69;5035531;28;45402;-47
2022/01/01 07:35:05;;;;;;;;;24.00;21.50;;;;;11.18;70.31;102033.16;5054406;28;45372;-45
2022/01/01 07:37:31;;;;;;;;;22.50;20.00;;;;;11.19;70.32;102037.56;5052266;28;45321;-47
2022/01/01 07:39:56;;;;;;;;;22.25;21.50;;;;;11.15;70.38;102032.25;5039931;28;45528;-46
2022/01/01 07:42:22;;;;;;;;;20.50;20.50;;;;;11.17;70.38;102039.28;5040012;28;45262;-47
2022/01/01 07:44:47;;;;;;;;;24.25;22.00;;;;;11.15;70.53;102043.66;5040066;28;45402;-47
2022/01/01 07:47:13;;;;;;;;;26.25;24.50;;;;;11.14;70.16;102038.38;5040009;28;45301;-48
2022/01/01 07:49:38;;;;;;;;;26.25;22.50;;;;;11.14;70.14;102035.75;5039895;28;45238;-48
2022/01/01 07:52:03;;;;;;;;;33.00;22.75;;;;;11.12;70.23;102043.66;5040073;28;45206;-49
2022/01/01 07:54:29;;;;;;;;;23.25;22.00;;;;;11.12;70.13;102026.97;5022059;28;45446;-47
2022/01/01 07:56:54;;;;;;;;;23.75;20.00;;;;;11.10;70.21;102029.59;5039907;28;45321;-48
2022/01/01 07:59:19;;;;;;;;;17.75;17.75;;;;;11.10;70.17;102036.63;5039788;28;45396;-49
2022/01/01 08:01:45;;;;;;;;;25.25;21.75;;;;;11.09;70.17;102037.50;5039745;28;45277;-48
2022/01/01 08:04:10;;;;;;;;;22.50;22.00;;;;;11.06;70.38;102033.97;5039688;28;45298;-46
2022/01/01 08:06:36;;;;;;;;;19.75;18.75;;;;;11.06;70.11;102039.22;5039470;28;45449;-50
2022/01/01 08:09:03;;;;;;;;;28.00;21.25;;;;;11.06;70.26;102039.22;5021886;28;45992;-47
2022/01/01 08:11:29;;;;;;;;;20.25;19.00;;;;;11.04;70.10;102034.84;5039508;28;45328;-50
2022/01/01 08:13:54;;;;;;;;;23.00;20.50;;;;;11.03;70.24;102044.50;5039578;28;45238;-46
2022/01/01 08:16:20;;;;;;;;;23.75;21.25;;;;;11.04;70.13;102046.25;5039475;28;47107;-46
2022/01/01 08:18:46;;;;;;;;;27.25;22.25;;;;;11.05;70.26;102042.72;5039564;28;45447;-48
2022/01/01 08:21:11;;;;;;;;;22.75;20.50;;;;;11.05;70.16;102037.47;5039308;28;45226;-47
2022/01/01 08:23:37;;;;;;;;;22.75;21.50;;;;;11.04;70.13;102029.56;5039607;28;45286;-46
2022/01/01 08:26:02;;;;;;;;;26.25;24.50;;;;;11.08;70.10;102046.25;5021341;28;48044;-48
2022/01/01 08:28:28;;;;;;;;;17.50;17.00;;;;;11.04;70.13;102032.19;5039289;28;45348;-50
2022/01/01 08:30:53;;;;;;;;;20.25;16.50;;;;;11.06;70.04;102033.09;5045712;28;45408;-49
2022/01/01 08:33:19;;;;;;;;;21.50;18.50;;;;;11.06;70.21;102033.97;5059655;28;45225;-47
2022/01/01 08:35:44;;;;;;;;;20.75;19.25;;;;;11.06;70.37;102025.22;5059317;28;45428;-48
2022/01/01 08:38:10;;;;;;;;;21.25;19.00;;;;;11.03;70.57;102031.34;5046428;28;45315;-46
2022/01/01 08:40:35;;;;;;;;;20.75;19.25;;;;;11.04;70.24;102021.69;5039218;28;45320;-48
2022/01/01 08:43:01;;;;;;;;;21.00;20.00;;;;;11.08;70.56;102027.84;5041560;28;45325;-50
2022/01/01 08:45:27;;;;;;;;;18.75;18.50;;;;;11.09;70.46;102029.59;5042668;28;46169;-47
2022/01/01 08:47:52;;;;;;;;;18.75;17.50;;;;;11.10;70.55;102032.22;5042658;28;45269;-47
2022/01/01 08:50:18;;;;;;;;;17.50;17.50;;;;;11.12;70.44;102034.84;5042933;28;45408;-47
2022/01/01 08:52:44;;;;;;;;;19.25;17.50;;;;;11.13;70.70;102040.16;5042838;28;45530;-45
2022/01/01 08:55:09;;;;;;;;;17.50;16.25;;;;;11.15;70.66;102040.16;5042309;28;45320;-49
2022/01/01 08:57:36;;;;;;;;;23.00;16.50;;;;;11.16;70.66;102034.03;5042576;28;45192;-47
2022/01/01 09:00:06;;;;;;;;;19.00;17.25;;;;;11.16;70.83;102020.88;5042672;28;45222;-47
2022/01/01 09:02:31;;;;;;;;;23.25;18.50;;;;;11.20;70.80;102030.53;5042359;28;45368;-49
2022/01/01 09:04:56;;;;;;;;;18.50;15.75;;;;;11.17;70.84;102026.13;5042217;28;46622;-48
2022/01/01 09:07:28;;;;;;;;;18.25;17.25;;;;;11.19;70.73;102023.50;5042473;28;45370;-48
2022/01/01 09:09:53;;;;;;;;;20.00;18.50;;;;;11.23;70.58;102025.25;5025486;28;45395;-48
2022/01/01 09:12:19;;;;;;;;;21.00;18.50;;;;;11.27;70.68;102026.16;5043115;28;45375;-47
2022/01/01 09:14:44;;;;;;;;;22.25;19.50;;;;;11.29;70.67;102029.69;5041039;28;46700;-46
2022/01/01 09:17:10;;;;;;;;;18.75;17.50;;;;;11.30;70.66;102029.69;5042220;28;45396;-46
2022/01/01 09:19:35;;;;;;;;;18.25;16.50;;;;;11.32;70.79;102027.94;5042360;28;45466;-47
2022/01/01 09:22:00;;;;;;;;;17.75;17.25;;;;;11.36;70.54;102032.31;5042210;28;45625;-48
2022/01/01 09:24:26;;;;;;;;;19.25;16.75;;;;;11.40;70.67;102025.31;5042097;28;45308;-47
2022/01/01 09:26:51;;;;;;;;;19.25;16.00;;;;;11.45;70.91;102022.72;5041944;28;45329;-47
2022/01/01 09:29:18;;;;;;;;;20.75;18.75;;;;;11.47;70.76;102018.31;5042339;28;45804;-51
2022/01/01 09:31:44;;;;;;;;;17.00;14.75;;;;;11.50;70.67;102016.56;5055305;28;45448;-51
2022/01/01 09:34:10;;;;;;;;;20.75;18.75;;;;;11.55;70.82;102012.19;5062016;28;46933;-51
2022/01/01 09:36:36;;;;;;;;;19.75;16.25;;;;;11.58;70.82;102006.06;5062127;28;45179;-48
2022/01/01 09:39:03;;;;;;;;;18.75;16.75;;;;;11.65;70.85;102002.56;5042263;28;45181;-50
2022/01/01 09:41:29;;;;;;;;;19.00;19.00;;;;;11.72;71.13;102008.69;5041555;28;45495;-47
2022/01/01 09:43:57;;;;;;;;;21.75;15.50;;;;;11.80;71.17;102004.34;5023833;28;47071;-48
2022/01/01 09:46:23;;;;;;;;;19.50;15.75;;;;;11.85;71.19;101989.41;5041663;28;45274;-50
2022/01/01 09:48:50;;;;;;;;;22.50;18.50;;;;;11.95;71.32;101998.19;5041935;28;45374;-48
2022/01/01 09:51:16;;;;;;;;;15.25;15.25;;;;;12.00;71.34;101983.31;5007361;28;45407;-47
2022/01/01 09:53:41;;;;;;;;;17.50;14.75;;;;;12.09;71.14;101984.16;5041386;28;45990;-49
2022/01/01 09:56:07;;;;;;;;;19.00;17.00;;;;;12.18;71.02;101982.41;5041736;28;45321;-47
2022/01/01 09:58:35;;;;;;;;;17.00;15.75;;;;;12.27;71.22;101992.06;5041536;28;45289;-51
2022/01/01 10:01:02;;;;;;;;;16.50;15.25;;;;;12.31;71.19;101982.38;5041533;28;45547;-49
2022/01/01 10:03:40;;;;;;;;;16.00;16.00;;;;;12.39;71.28;101982.38;5041461;28;47309;-49
2022/01/01 10:06:14;;;;;;;;;17.25;12.00;;;;;12.48;71.49;101985.00;5041269;28;45246;-48
2022/01/01 10:08:41;;;;;;;;;16.00;16.00;;;;;12.58;71.29;101980.56;5041555;28;45278;-47
2022/01/01 10:11:08;;;;;;;;;15.50;14.75;;;;;12.70;71.13;101969.97;5041362;28;45590;-50
2022/01/01 10:13:37;;;;;;;;;15.50;15.00;;;;;12.80;71.40;101968.19;5023198;28;47172;-50
2022/01/01 10:16:04;;;;;;;;;14.00;12.75;;;;;12.89;71.03;101968.16;5041206;28;45295;-46
2022/01/01 10:18:42;;;;;;;;;12.25;12.25;;;;;13.03;71.06;101967.22;5041468;28;45285;-49
2022/01/01 10:21:11;;;;;;;;;14.00;14.00;;;;;13.16;71.74;101968.91;5041010;28;45226;-46
2022/01/01 10:23:38;;;;;;;;;12.50;12.50;;;;;13.28;71.55;101974.13;5041067;28;46289;-51
2022/01/01 10:28:56;;;;;;;;;15.25;15.25;;;;;13.54;71.15;101981.03;5026062;28;45362;-49
2022/01/01 10:31:21;;;;;;;;;11.00;11.00;;;;;13.67;71.00;101975.66;5051114;28;45297;-50
2022/01/01 10:33:47;;;;;;;;;15.00;13.00;;;;;13.80;71.20;101966.75;5060962;28;46104;-50
2022/01/01 10:36:14;;;;;;;;;12.00;12.00;;;;;13.91;71.92;101956.97;5061212;28;45331;-48
2022/01/01 10:38:41;;;;;;;;;9.00;9.00;;;;;14.02;70.98;101958.66;5044221;28;45165;-51
2022/01/01 10:41:09;;;;;;;;;10.00;10.00;;;;;14.16;71.08;101969.09;5023107;28;45499;-49
2022/01/01 10:43:39;;;;;;;;;12.00;10.25;;;;;14.27;70.90;101973.34;5040682;28;46313;-47
2022/01/01 10:46:07;;;;;;;;;11.25;11.00;;;;;14.39;71.53;101966.19;5006480;28;45282;-46
2022/01/01 10:51:05;;;;;;;;;11.00;9.25;;;;;14.65;71.14;101976.53;5040777;28;45477;-50
2022/01/01 10:53:31;;;;;;;;;13.00;11.75;;;;;14.76;71.02;101977.25;5040466;28;46264;-49
2022/01/01 10:55:59;;;;;;;;;11.00;9.00;;;;;14.90;70.91;101976.22;5040573;28;45241;-46
2022/01/01 10:58:31;;;;;;;;;10.50;9.25;;;;;15.00;71.15;101969.91;5040553;28;45455;-48
2022/01/01 11:01:03;;;;;;;;;12.25;11.00;;;;;15.15;70.99;101971.50;5040579;28;45524;-48
2022/01/01 11:03:34;;;;;;;;;9.75;9.75;;;;;15.27;70.53;101970.47;5047486;28;45376;-48
2022/01/01 11:06:05;;;;;;;;;11.00;11.00;;;;;15.39;70.30;101969.41;5041558;28;45324;-47
2022/01/01 11:08:32;;;;;;;;;9.25;8.50;;;;;15.47;70.36;101962.22;5042976;28;45234;-48
2022/01/01 11:10:58;;;;;;;;;10.75;10.50;;;;;15.57;70.61;101962.94;5042040;28;45206;-47
2022/01/01 11:13:24;;;;;;;;;11.25;11.25;;;;;15.72;70.17;101962.72;5060351;28;45356;-47
2022/01/01 11:15:51;;;;;;;;;13.50;12.25;;;;;15.81;70.23;101969.63;5060349;28;45350;-52